Tuesday, April 24, 2018, 4:23 AM EDT
Back to Local

KOWD, Norwood Memorial Airport

Location: Norwood, MA, United States Lat: 42.183
Local Time: 4:23 AM EDT ( 8:23 GMT) Lon: -71.167
Time Zone: US/Eastern Elev: 49 ft

Show me the last for .
Show Decoded

2018-04-24 03:53 METAR KOWD 240753Z AUTO 00000KT 10SM CLR 04/00 A3041 RMK AO2 SLP299 T00390000 =
2018-04-24 02:53 METAR KOWD 240653Z AUTO 17004KT 10SM CLR 06/01 A3042 RMK AO2 SLP301 T00560006 =
2018-04-24 01:53 METAR KOWD 240553Z AUTO 17004KT 10SM CLR 06/M01 A3042 RMK AO2 SLP301 T00611006
                 10128 20061 58007 =
2018-04-24 00:53 METAR KOWD 240453Z AUTO 19004KT 10SM CLR 08/M02 A3044 RMK AO2 SLP307 T00781022
                 401940000 =
2018-04-23 23:53 METAR KOWD 240353Z AUTO 17004KT 10SM CLR 08/M02 A3044 RMK AO2 SLP309 T00781022 =
2018-04-23 22:53 METAR KOWD 240253Z AUTO 18006KT 10SM CLR 09/M04 A3044 RMK AO2 SLP308 T00941044
                 50005 =
2018-04-23 21:53 METAR KOWD 240153Z AUTO 18006KT 10SM CLR 10/M05 A3045 RMK AO2 SLP312 T01001050 =
2018-04-23 20:53 METAR KOWD 240053Z AUTO 18008KT 10SM CLR 11/M06 A3046 RMK AO2 SLP314 T01111056 =
2018-04-23 19:53 METAR KOWD 232353Z 17008KT 10SM CLR 12/M03 A3043 RMK AO2 SLP303 T01221033 10194
                 20122 52010 =
2018-04-23 18:53 METAR KOWD 232253Z 19010KT 10SM CLR 14/M03 A3043 RMK AO2 WSHFT 2156 SLP302
                 T01441033 =
2018-04-23 18:16 METAR KOWD 232216Z 21011G19KT 10SM CLR 16/M02 A3041 RMK AO2 WSHFT 2156 T01611022
                 =
2018-04-23 17:53 METAR KOWD 232153Z 16010KT 10SM CLR 18/M04 A3040 RMK AO2 SLP295 T01831044 =
2018-04-23 16:53 METAR KOWD 232053Z 09009KT 10SM CLR 19/M05 A3040 RMK AO2 SLP293 T01891050 56015
                 =
2018-04-23 15:53 METAR KOWD 231953Z 06005KT 10SM CLR 19/M07 A3041 RMK AO2 SLP296 T01891067 =
2018-04-23 14:53 METAR KOWD 231853Z 06007KT 10SM CLR 19/M07 A3043 RMK AO2 SLP302 T01941067 =
2018-04-23 13:53 METAR KOWD 231753Z VRB06KT 10SM CLR 18/M08 A3044 RMK AO2 SLP309 T01831083 10183
                 20072 58018 =
2018-04-23 12:53 METAR KOWD 231653Z 31005KT 10SM CLR 17/M08 A3046 RMK AO2 SLP314 T01721083 =
2018-04-23 11:53 METAR KOWD 231553Z 00000KT 10SM CLR 16/M08 A3048 RMK AO2 SLP322 T01611083 =
2018-04-23 10:53 METAR KOWD 231453Z VRB03KT 10SM CLR 15/M08 A3050 RMK AO2 SLP327 T01501078 50000
                 =
2018-04-23 09:53 METAR KOWD 231353Z VRB05KT 10SM CLR 14/M07 A3051 RMK AO2 SLP330 T01391072 =
2018-04-23 08:53 METAR KOWD 231253Z 00000KT 10SM CLR 12/M03 A3050 RMK AO2 SLP328 T01171028 =
2018-04-23 07:53 METAR KOWD 231153Z 00000KT 10SM CLR 07/01 A3050 RMK AO2 SLP327 I6001 T00720011
                 10072 20000 51017 =
2018-04-23 06:53 METAR KOWD 231053Z 00000KT 10SM CLR 03/01 A3049 RMK AO2 SLP323 T00280011 =
2018-04-23 05:53 METAR KOWD 230953Z AUTO 00000KT 10SM CLR 00/M01 A3046 RMK AO2 SLP315 I1001
                 T00001011 =
2018-04-23 04:53 METAR KOWD 230853Z AUTO 00000KT 10SM CLR 01/M01 A3045 RMK AO2 SLP310 T00111006
                 53013 =

Support USWX by starting your Amazon purchase here.